Grandville, Michigan
Current Conditions -  °F | °C
As of 5:53 AM on Thursday 18 Dec 2014 (Local Time) from KGRR Reporting Station
Overcast Overcast  
Wind Chill: 22°   Ceiling: 2100
Heat Index: 30°   Visibility: 10mi
Dew Point: 25°   Wind: 9mph
Humidity: 82%   Direction: 280°W
Pressure: 30.19"   Gusts: NA
Location:  42.91°N, 85.76°W
Report Text: KGRR 181053Z 28008KT 10SM SCT014 OVC021 M01/M04 A3019 RMK AO2 SLP234 T10111039
Loading
Personal Weather Stations






























Interactive Weather Map New forecast layout! Learn more

10-Day Weather Forecast

Advertisements
Track Severe Weather on mobile